Washington, DC (20319)

7:34 AM EST on December 22, 2014 (GMT -0500)
Capitol Hill, Washington, DC USA | Change Station
CLOSE
Current Station
Personal Weather Station
Location: Washington, DC
Elevation: 92 ft
Nearby Weather Stations

Elev 92 ft 38.89 °N, 76.99 °W | Updated 7 minutes ago

Overcast
Overcast
31.9 °F
Feels Like 32 °F
N
2.0
Wind Variable Wind from ENE

Today
High -- | Low -- °F
--% Chance of Precip.
Yesterday
High -- | Low -- °F
Precip. -- in
7:23 AM 4:50 PM
New Moon, 0% visible
Pressure 30.30 in
Visibility 8.0 miles
Clouds Overcast 4500 ft
Windchill 32 °F
Dew Point 28 °F
Humidity 85%
Rainfall 0.00 in
Snow Depth Not available.
UV 0 out of 12
Pollen .10 out of 12
Air Quality Not available.
Flu Activity Not available.
METAR KDCA 221152Z 03004KT 8SM OVC045 02/M04 A3031 RMK AO2 SLP261 T00171039 10017 20006 56002

More Conditions Fewer Conditions

Pressure 30.30 in
Visibility 8.0 miles
Clouds Overcast 4500 ft
Windchill 32 °F
Dew Point 28 °F
Humidity 85%
Rainfall 0.00 in
Snow Depth Not available.
UV 0 out of 12
Pollen .10 out of 12
Air Quality Not available.
Flu Activity Not available.
METAR KDCA 221152Z 03004KT 8SM OVC045 02/M04 A3031 RMK AO2 SLP261 T00171039 10017 20006 56002

More Conditions Fewer Conditions

10-Day Weather Forecast

Almanac

Astronomy

Dec. 22, 2014 Rise Set
Actual Time
Civil Twilight
Nautical Twilight
Astronomical Twilight
Moon
Length of Visible Light
Length of Day
Tomorrow will be .
, % of the Moon is Illuminated

Today's Extremes

State Highs State Lows

Community

WunderPhotos

Upload Photos

1,779,598 photos uploaded!

WunderBlogs® & News

Nearby

Air Quality

  Air Quality AQ Index Pollutant
Not available.

Snow Depth

Station Depth Elevation

Earthquake Activity

City Distance Mag. Time & Date
Minimum magnitude displayed is 2.5.

Coastal Water Temperatures

Place Temperature

Nearby Weather Stations